createdAt,value
2023-03-26T00:03:57.365Z,15.52
2023-03-26T00:09:02.191Z,15.76
2023-03-26T00:14:05.887Z,16.26
2023-03-26T00:19:10.927Z,16.01
2023-03-26T00:24:16.148Z,15.53
2023-03-26T00:29:19.748Z,16.06
2023-03-26T00:34:24.769Z,15.73
2023-03-26T00:39:33.571Z,15.92
2023-03-26T00:44:37.111Z,15.30
2023-03-26T00:49:40.589Z,15.12
2023-03-26T00:54:45.903Z,15.52
2023-03-26T00:59:49.948Z,15.13
2023-03-26T01:04:58.113Z,15.12
2023-03-26T01:10:03.012Z,14.81
2023-03-26T01:15:08.237Z,15.10
2023-03-26T01:20:16.085Z,14.96
2023-03-26T01:25:21.565Z,14.79
2023-03-26T01:30:29.351Z,14.83
2023-03-26T01:35:40.243Z,15.30
2023-03-26T01:40:49.529Z,15.27
2023-03-26T01:45:54.057Z,15.48
2023-03-26T01:50:58.764Z,14.89
2023-03-26T01:56:13.241Z,15.05
2023-03-26T02:01:24.290Z,15.59
2023-03-26T02:06:31.589Z,15.32
2023-03-26T02:11:36.679Z,15.15
2023-03-26T02:16:40.290Z,15.06
2023-03-26T02:21:43.803Z,15.32
2023-03-26T02:26:48.853Z,14.82
2023-03-26T02:31:52.457Z,14.65
2023-03-26T02:36:57.105Z,15.39
2023-03-26T02:42:02.074Z,15.15
2023-03-26T02:47:07.883Z,15.11
2023-03-26T02:52:18.588Z,15.18
2023-03-26T02:57:25.437Z,15.30
2023-03-26T03:03:04.855Z,14.73
2023-03-26T03:08:08.367Z,15.30
2023-03-26T03:13:16.018Z,15.38
2023-03-26T03:18:19.684Z,15.14
2023-03-26T03:23:23.223Z,14.66
2023-03-26T03:28:33.231Z,15.04
2023-03-26T03:33:36.792Z,14.78
2023-03-26T03:38:41.583Z,15.61
2023-03-26T03:43:48.453Z,15.94
2023-03-26T03:48:57.110Z,15.61
2023-03-26T03:54:08.512Z,15.11
2023-03-26T03:59:25.234Z,15.18
2023-03-26T04:04:29.261Z,15.14
2023-03-26T04:09:37.487Z,15.42
2023-03-26T04:14:50.671Z,14.87
2023-03-26T04:19:56.329Z,14.79
2023-03-26T04:25:05.234Z,14.68
2023-03-26T04:30:30.491Z,15.32
2023-03-26T04:35:48.236Z,14.54
2023-03-26T04:40:53.455Z,14.89
2023-03-26T04:46:18.408Z,15.24
2023-03-26T04:51:39.417Z,14.97
2023-03-26T04:56:53.575Z,15.11
2023-03-26T05:02:07.927Z,15.07
2023-03-26T05:07:23.759Z,15.26
2023-03-26T05:12:31.116Z,15.71
2023-03-26T05:17:48.414Z,15.75
2023-03-26T05:23:00.012Z,15.91
2023-03-26T05:28:06.527Z,16.10
2023-03-26T05:33:19.270Z,15.90
2023-03-26T05:38:29.951Z,15.99
2023-03-26T05:43:35.192Z,15.68
2023-03-26T05:48:53.909Z,15.80
2023-03-26T05:53:57.835Z,15.48
2023-03-26T05:59:39.448Z,15.83
2023-03-26T06:05:21.484Z,15.70
2023-03-26T06:10:48.507Z,15.67
2023-03-26T06:15:52.367Z,15.59
2023-03-26T06:21:20.170Z,15.65
2023-03-26T06:26:37.828Z,16.23
2023-03-26T06:32:12.403Z,16.25
2023-03-26T06:37:28.676Z,15.96
2023-03-26T06:43:07.869Z,16.42
2023-03-26T06:48:16.978Z,16.45
2023-03-26T06:53:33.348Z,16.45
2023-03-26T06:59:11.865Z,16.89
2023-03-26T07:04:34.044Z,16.35
2023-03-26T07:09:57.468Z,16.54
2023-03-26T07:15:24.064Z,17.14
2023-03-26T07:20:31.035Z,17.10
2023-03-26T07:25:36.489Z,17.05
2023-03-26T07:31:01.973Z,17.20
2023-03-26T07:36:25.274Z,16.84
2023-03-26T07:41:59.625Z,17.00
2023-03-26T07:47:26.060Z,17.00
2023-03-26T07:52:50.524Z,17.04
2023-03-26T07:58:16.699Z,16.29
2023-03-26T08:03:52.506Z,16.55
2023-03-26T08:09:20.405Z,15.79
2023-03-26T08:14:50.771Z,16.82
2023-03-26T08:20:07.319Z,17.37
2023-03-26T08:25:19.591Z,18.11
2023-03-26T08:30:26.622Z,18.06
2023-03-26T08:35:30.841Z,18.54
2023-03-26T08:40:53.222Z,18.85
2023-03-26T08:46:25.965Z,18.69
2023-03-26T08:51:52.393Z,19.39
2023-03-26T08:57:07.965Z,19.29
2023-03-26T09:02:34.713Z,19.82
2023-03-26T09:07:51.698Z,18.54
2023-03-26T09:13:28.870Z,19.58
2023-03-26T09:19:07.869Z,19.18
2023-03-26T09:24:36.399Z,19.84
2023-03-26T09:30:14.716Z,19.36
2023-03-26T09:35:49.321Z,18.42
2023-03-26T09:40:58.427Z,19.59
2023-03-26T09:46:09.318Z,19.52
2023-03-26T09:51:55.503Z,17.91
2023-03-26T09:57:05.331Z,18.63
2023-03-26T10:02:21.446Z,19.74
2023-03-26T10:07:42.949Z,19.88
2023-03-26T10:12:57.624Z,19.93
2023-03-26T10:18:27.539Z,20.21
2023-03-26T10:23:42.371Z,18.87
2023-03-26T10:29:09.385Z,19.32
2023-03-26T10:34:28.413Z,19.11
2023-03-26T10:39:48.711Z,19.25
2023-03-26T10:45:09.908Z,18.83
2023-03-26T10:50:24.724Z,19.08
2023-03-26T10:55:30.308Z,19.15
2023-03-26T11:00:39.840Z,19.69
2023-03-26T11:05:48.860Z,18.99
2023-03-26T11:10:57.165Z,19.80
2023-03-26T11:16:05.718Z,20.07
2023-03-26T11:21:18.711Z,20.47
2023-03-26T11:26:27.362Z,20.76
2023-03-26T11:31:41.302Z,20.18
2023-03-26T11:36:48.032Z,20.26
2023-03-26T11:41:53.948Z,20.26
2023-03-26T11:47:10.144Z,21.09
2023-03-26T11:52:15.626Z,20.68
2023-03-26T11:57:22.601Z,20.84
2023-03-26T12:02:32.343Z,21.56
2023-03-26T12:07:37.177Z,21.35
2023-03-26T12:12:42.736Z,20.81
2023-03-26T12:17:48.389Z,20.41
2023-03-26T12:22:53.653Z,21.25
2023-03-26T12:28:02.894Z,20.84
2023-03-26T12:33:16.198Z,20.76
2023-03-26T12:38:24.782Z,21.53
2023-03-26T12:44:53.908Z,20.11
2023-03-26T12:49:01.086Z,21.51
2023-03-26T12:54:33.114Z,21.06
2023-03-26T12:59:47.512Z,20.42
2023-03-26T13:05:06.330Z,20.06
2023-03-26T13:10:30.906Z,20.19
2023-03-26T13:15:36.487Z,20.88
2023-03-26T13:20:51.358Z,20.98
2023-03-26T13:26:01.548Z,20.34
2023-03-26T13:31:08.428Z,20.97
2023-03-26T13:36:23.701Z,20.05
2023-03-26T13:41:35.251Z,19.98
2023-03-26T13:46:42.511Z,20.36
2023-03-26T13:51:50.682Z,20.32
2023-03-26T13:56:58.421Z,20.18
2023-03-26T14:02:06.358Z,18.43
2023-03-26T14:07:15.706Z,18.10
2023-03-26T14:12:44.592Z,19.08
2023-03-26T14:17:52.495Z,18.70
2023-03-26T14:23:12.809Z,17.80
2023-03-26T14:28:28.155Z,18.75
2023-03-26T14:33:43.283Z,18.94
2023-03-26T14:39:09.372Z,16.95
2023-03-26T14:44:31.552Z,18.88
2023-03-26T14:50:42.520Z,18.87
2023-03-26T14:56:08.298Z,19.19
2023-03-26T15:01:29.590Z,18.97
2023-03-26T15:07:07.321Z,18.54
2023-03-26T15:12:23.486Z,19.08
2023-03-26T15:18:08.339Z,17.55
2023-03-26T15:24:05.717Z,18.57
2023-03-26T15:29:36.840Z,18.29
2023-03-26T15:35:04.007Z,17.51
2023-03-26T15:40:36.263Z,17.05
2023-03-26T15:45:41.939Z,16.47
2023-03-26T15:50:53.709Z,16.55
2023-03-26T15:56:13.760Z,15.58
2023-03-26T16:01:32.134Z,16.24
2023-03-26T16:06:41.624Z,16.54
2023-03-26T16:11:51.812Z,17.37
2023-03-26T16:16:59.366Z,16.12
2023-03-26T16:22:05.924Z,15.64
2023-03-26T16:27:31.943Z,15.75
2023-03-26T16:32:37.684Z,17.29
2023-03-26T16:37:45.626Z,17.46
2023-03-26T16:42:51.136Z,15.24
2023-03-26T16:48:02.881Z,16.06
2023-03-26T16:53:22.019Z,16.39
2023-03-26T16:58:31.596Z,16.20
2023-03-26T17:03:44.779Z,15.84
2023-03-26T17:08:56.411Z,15.64
2023-03-26T17:14:08.651Z,15.33
2023-03-26T17:19:25.474Z,16.25
2023-03-26T17:24:40.601Z,15.28
2023-03-26T17:30:27.992Z,15.41
2023-03-26T17:35:42.766Z,15.54
2023-03-26T17:40:55.697Z,15.63
2023-03-26T17:46:03.937Z,14.37
2023-03-26T17:51:30.288Z,15.32
2023-03-26T17:56:37.583Z,15.25
2023-03-26T18:01:44.079Z,14.49
2023-03-26T18:07:03.931Z,14.72
2023-03-26T18:12:32.183Z,15.22
2023-03-26T18:17:41.419Z,15.33
2023-03-26T18:22:47.256Z,15.62
2023-03-26T18:27:50.682Z,14.71
2023-03-26T18:33:00.197Z,15.17
2023-03-26T18:38:05.922Z,13.97
2023-03-26T18:43:28.595Z,13.74
2023-03-26T18:48:37.768Z,14.15
2023-03-26T18:53:47.815Z,13.83
2023-03-26T18:58:52.735Z,13.72
2023-03-26T19:03:56.342Z,13.49
2023-03-26T19:09:01.316Z,13.44
2023-03-26T19:14:08.629Z,13.73
2023-03-26T19:19:18.036Z,13.63
2023-03-26T19:24:23.748Z,12.90
2023-03-26T19:29:30.942Z,12.99
2023-03-26T19:34:35.787Z,12.28
2023-03-26T19:39:42.628Z,12.70
2023-03-26T19:44:46.249Z,12.76
2023-03-26T19:49:52.930Z,11.45
2023-03-26T19:55:03.659Z,12.56
2023-03-26T20:00:14.052Z,12.80
2023-03-26T20:05:22.829Z,11.21
2023-03-26T20:10:27.908Z,12.24
2023-03-26T20:15:34.205Z,10.83
2023-03-26T20:20:37.970Z,11.95
2023-03-26T20:25:49.692Z,12.26
2023-03-26T20:30:54.382Z,11.68
2023-03-26T20:35:59.811Z,12.85
2023-03-26T20:41:05.172Z,12.15
2023-03-26T20:46:12.393Z,11.29
2023-03-26T20:51:17.276Z,10.96
2023-03-26T20:56:22.610Z,11.72
2023-03-26T21:01:26.190Z,11.47
2023-03-26T21:06:29.753Z,11.99
2023-03-26T21:11:44.343Z,11.36
2023-03-26T21:16:48.506Z,11.00
2023-03-26T21:21:59.094Z,11.01
2023-03-26T21:27:09.965Z,11.07
2023-03-26T21:32:14.651Z,11.39
2023-03-26T21:37:19.067Z,11.83
2023-03-26T21:42:26.773Z,10.89
2023-03-26T21:47:31.162Z,11.15
2023-03-26T21:52:35.326Z,12.05
2023-03-26T21:57:49.589Z,11.45
2023-03-26T22:03:01.780Z,10.93
2023-03-26T22:08:07.014Z,11.65
2023-03-26T22:13:11.909Z,10.19
2023-03-26T22:18:15.354Z,10.28
2023-03-26T22:23:18.848Z,10.28
2023-03-26T22:28:23.868Z,10.34
2023-03-26T22:33:27.606Z,11.30
2023-03-26T22:38:31.036Z,10.14
2023-03-26T22:43:35.889Z,10.34
2023-03-26T22:48:40.882Z,10.61
2023-03-26T22:53:44.504Z,10.21
2023-03-26T22:58:49.324Z,10.09
2023-03-26T23:03:52.781Z,11.30
2023-03-26T23:08:57.000Z,10.06
2023-03-26T23:14:02.196Z,10.93
2023-03-26T23:19:05.676Z,10.15
2023-03-26T23:24:09.334Z,10.42
2023-03-26T23:29:14.313Z,9.69
2023-03-26T23:34:18.524Z,10.48
2023-03-26T23:39:22.095Z,9.24
2023-03-26T23:44:29.512Z,10.31
2023-03-26T23:49:32.935Z,10.57
2023-03-26T23:54:36.873Z,11.24
2023-03-26T23:59:46.023Z,11.39
